Weather reports worldwide

Advertisment
Mt. St.Vincent, France (7382): temperature & dewpoint: 20.03.2019 20:00:00 - 26.03.2019 20:00:00 (CET)Mt. St.Vincent, France (7382): wind speed & gusts: 20.03.2019 20:00:00 - 26.03.2019 20:00:00 (CET)Mt. St.Vincent, France (7382): wind direction: 20.03.2019 20:00:00 - 26.03.2019 20:00:00 (CET)Mt. St.Vincent, France (7382): sunshine duration: 20.03.2019 20:00:00 - 26.03.2019 20:00:00 (CET)Mt. St.Vincent, France (7382): precipitation: 20.03.2019 20:00:00 - 26.03.2019 20:00:00 (CET)
Date & Time tt [°C] td [°C] ff [km/h] ff [kn] fx [km/h] fx [kn] dd sd [min] rr [mm]
26.03.2019 20:00:00 - - - - - - - - -
26.03.2019 19:00:00 6,1 -2,3 18 10 37 20 NE 42 -
26.03.2019 18:00:00 7,6 -2,2 21 11 35 19 NE 60 0,0
26.03.2019 17:00:00 8,7 -1,7 18 10 34 18 NE 60 0,0
26.03.2019 16:00:00 9,0 -1,4 18 10 44 24 NNE 60 0,0
26.03.2019 15:00:00 8,5 -0,8 22 12 42 23 NE 60 0,0
26.03.2019 14:00:00 8,6 -0,5 21 11 46 25 NE 60 0,0
26.03.2019 13:00:00 7,5 -1,0 24 13 48 26 NE 48 -
26.03.2019 12:00:00 6,3 -0,9 16 9 48 26 NNE 30 0,0
26.03.2019 11:00:00 4,8 -2,1 26 14 59 32 NE 48 0,0
26.03.2019 10:00:00 5,0 -0,4 29 16 55 30 NE 54 0,0
26.03.2019 09:00:00 3,3 0,0 21 11 41 22 NE 24 0,0
26.03.2019 08:00:00 1,0 -0,6 22 12 44 24 NNE 30 0,0
26.03.2019 07:00:00 0,4 -0,5 18 10 41 22 NNE 6 -
26.03.2019 06:00:00 0,4 -0,6 18 10 42 23 NNE 0 0,0
26.03.2019 05:00:00 0,5 -0,4 16 9 41 22 NNE 0 0,0
26.03.2019 04:00:00 0,8 -0,4 18 10 39 21 N 0 0,0
26.03.2019 03:00:00 0,9 -0,4 15 8 34 18 N 0 0,0
26.03.2019 02:00:00 1,3 -0,8 16 9 39 21 N 0 0,0
26.03.2019 01:00:00 2,0 -0,9 16 9 44 24 N 0 -
26.03.2019 00:00:00 2,5 -1,5 16 9 55 30 N 0 0,0
25.03.2019 23:00:00 3,2 -2,1 18 10 50 27 N 0 0,0
25.03.2019 22:00:00 3,6 -3,0 18 10 42 23 N 0 0,0
25.03.2019 21:00:00 4,1 -3,4 16 9 41 22 N 0 0,0
25.03.2019 20:00:00 4,6 -3,4 16 9 39 21 N 0 0,0
25.03.2019 19:00:00 5,4 -3,4 13 7 46 25 N 30 -
25.03.2019 18:00:00 7,0 -3,6 15 8 44 24 N 24 0,0
25.03.2019 17:00:00 7,3 -2,2 15 8 37 20 N 24 0,0
25.03.2019 16:00:00 6,6 -0,9 15 8 37 20 N 18 0,0
25.03.2019 15:00:00 6,8 -0,9 15 8 42 23 N 0 0,0
25.03.2019 14:00:00 7,0 -1,2 16 9 42 23 N 0 0,0
25.03.2019 13:00:00 8,5 -0,8 13 7 42 23 N 24 -
25.03.2019 12:00:00 8,5 -0,5 18 10 37 20 N 36 0,0
25.03.2019 11:00:00 8,4 0,4 13 7 34 18 NNE 54 0,0
25.03.2019 10:00:00 7,0 1,1 13 7 28 15 NNE 60 0,0
25.03.2019 09:00:00 5,3 -0,3 15 8 31 17 NNE 60 0,0
25.03.2019 08:00:00 3,1 -0,2 15 8 34 18 N 48 0,0
25.03.2019 07:00:00 2,7 0,1 11 6 29 16 N 0 -
25.03.2019 06:00:00 3,3 0,5 15 8 34 18 NNE 0 0,0
25.03.2019 05:00:00 4,1 2,1 9 5 28 15 N 0 0,0
25.03.2019 04:00:00 4,4 2,6 16 9 28 15 N 0 0,0
25.03.2019 03:00:00 4,6 3,3 15 8 29 16 N 0 0,0
25.03.2019 02:00:00 5,0 3,7 13 7 26 14 NNW 0 0,0
25.03.2019 01:00:00 5,7 4,0 15 8 26 14 N 0 -
25.03.2019 00:00:00 6,3 4,0 11 6 24 13 N 0 0,0
24.03.2019 23:00:00 6,4 3,7 13 7 28 15 N 0 0,0
24.03.2019 22:00:00 6,6 2,9 11 6 29 16 N 0 0,0
24.03.2019 21:00:00 7,3 3,2 13 7 31 17 N 0 0,0
24.03.2019 20:00:00 7,9 3,7 15 8 29 16 NNW 0 0,0
24.03.2019 19:00:00 9,0 5,2 9 5 28 15 N 30 -
24.03.2019 18:00:00 11,8 3,8 18 10 31 17 WNW 60 0,0
24.03.2019 17:00:00 13,0 5,4 24 13 35 19 WNW 60 0,0
24.03.2019 16:00:00 13,9 4,2 21 11 41 22 WNW 60 0,0
24.03.2019 15:00:00 14,3 4,8 21 11 34 18 W 60 0,0
24.03.2019 14:00:00 13,6 6,2 21 11 29 16 W 60 0,0
24.03.2019 13:00:00 12,5 7,0 16 9 26 14 W 60 -
24.03.2019 12:00:00 10,9 6,8 18 10 28 15 W 60 0,0
24.03.2019 11:00:00 9,7 6,2 21 11 31 17 W 48 0,0
24.03.2019 10:00:00 8,0 5,5 18 10 28 15 W 60 0,0
24.03.2019 09:00:00 8,4 4,6 15 8 22 12 W 60 0,0
24.03.2019 08:00:00 7,4 3,8 16 9 21 11 W 60 0,0
24.03.2019 07:00:00 6,2 3,5 13 7 15 8 W 0 -
24.03.2019 06:00:00 8,8 1,7 5 3 13 7 NE 0 0,0
24.03.2019 05:00:00 8,5 2,1 11 6 18 10 ENE 0 0,0
24.03.2019 04:00:00 8,3 2,3 15 8 22 12 ENE 0 0,0
24.03.2019 03:00:00 8,8 2,4 18 10 28 15 NE 0 0,0
24.03.2019 02:00:00 8,6 2,6 18 10 34 18 ENE 0 0,0
24.03.2019 01:00:00 9,2 2,7 18 10 35 19 NE 0 -
24.03.2019 00:00:00 9,1 3,3 16 9 29 16 NNE 0 0,0
23.03.2019 23:00:00 9,6 3,8 11 6 28 15 N 0 0,0
23.03.2019 22:00:00 10,4 2,5 13 7 28 15 N 0 0,0
23.03.2019 21:00:00 12,2 0,9 11 6 24 13 N 0 0,0
23.03.2019 20:00:00 12,8 0,5 9 5 18 10 NE 0 0,0
23.03.2019 19:00:00 14,1 1,4 8 4 18 10 N 36 -
23.03.2019 18:00:00 17,3 2,1 4 2 15 8 NNW 60 0,0
23.03.2019 17:00:00 17,0 2,9 8 4 18 10 NNE 60 0,0
23.03.2019 16:00:00 17,3 2,5 8 4 18 10 N 60 0,0
23.03.2019 15:00:00 17,1 4,4 9 5 18 10 N 60 0,0
23.03.2019 14:00:00 16,6 2,2 8 4 18 10 N 60 0,0
23.03.2019 13:00:00 15,8 2,6 9 5 18 10 N 60 -
23.03.2019 12:00:00 15,3 0,3 4 2 13 7 NW 60 0,0
23.03.2019 11:00:00 14,2 3,9 5 3 11 6 NW 48 0,0
23.03.2019 10:00:00 13,9 1,2 4 2 13 7 E 60 0,0
23.03.2019 09:00:00 13,2 2,1 5 3 9 5 ENE 60 0,0
23.03.2019 08:00:00 12,3 1,3 5 3 15 8 NE 60 0,0
23.03.2019 07:00:00 10,2 0,2 13 7 18 10 NE 0 -
23.03.2019 06:00:00 11,0 -0,2 11 6 21 11 NE 0 0,0
23.03.2019 05:00:00 11,1 -0,4 11 6 18 10 NNE 0 0,0
23.03.2019 04:00:00 11,1 -0,7 9 5 21 11 N 0 0,0
23.03.2019 03:00:00 11,5 -0,7 5 3 9 5 NNW 0 0,0
23.03.2019 02:00:00 12,5 -1,5 5 3 9 5 NW 0 0,0
23.03.2019 01:00:00 12,6 -2,5 4 2 8 4 NNW 0 -
23.03.2019 00:00:00 12,4 -1,9 4 2 9 5 NNW 0 0,0
22.03.2019 23:00:00 12,2 -1,4 5 3 9 5 NNW 0 0,0
22.03.2019 22:00:00 12,5 -2,6 5 3 11 6 NW 0 0,0
22.03.2019 21:00:00 12,3 -0,9 8 4 11 6 NW 0 0,0
22.03.2019 20:00:00 13,2 -1,2 9 5 9 5 WNW 0 0,0
22.03.2019 19:00:00 13,8 -3,1 8 4 11 6 WNW 36 -
22.03.2019 18:00:00 16,3 -0,9 8 4 13 7 W 60 0,0
22.03.2019 17:00:00 17,2 -1,5 5 3 13 7 NW 60 0,0
22.03.2019 16:00:00 17,0 1,4 5 3 21 11 W 60 0,0
22.03.2019 15:00:00 15,9 1,2 11 6 21 11 W 60 0,0
22.03.2019 14:00:00 15,2 2,0 8 4 18 10 WNW 60 0,0
22.03.2019 13:00:00 14,3 2,8 8 4 18 10 W 60 -
22.03.2019 12:00:00 13,2 2,4 5 3 13 7 W 60 0,0
22.03.2019 11:00:00 13,3 3,4 2 1 11 6 W 48 0,0
22.03.2019 10:00:00 11,7 0,4 4 2 9 5 SSE 60 0,0
22.03.2019 09:00:00 10,0 0,6 4 2 9 5 S 60 0,0
22.03.2019 08:00:00 8,2 -0,3 5 3 8 4 SW 54 0,0
22.03.2019 07:00:00 6,7 -0,8 4 2 11 6 W 0 -
22.03.2019 06:00:00 6,1 -1,6 11 6 15 8 W 0 0,0
22.03.2019 05:00:00 6,2 -1,5 11 6 15 8 WSW 0 0,0
22.03.2019 04:00:00 6,6 -1,6 11 6 16 9 SW 0 0,0
22.03.2019 03:00:00 7,0 -3,0 8 4 9 5 WSW 0 0,0
22.03.2019 02:00:00 7,4 -3,8 4 2 5 3 W 0 0,0
22.03.2019 01:00:00 7,5 -4,0 4 2 8 4 WNW 0 -
22.03.2019 00:00:00 8,4 -4,1 8 4 13 7 ENE 0 0,0
21.03.2019 23:00:00 8,4 -3,8 9 5 16 9 ENE 0 0,0
21.03.2019 22:00:00 8,3 -3,6 13 7 18 10 NE 0 0,0
21.03.2019 21:00:00 8,1 -3,1 15 8 18 10 ENE 0 0,0
21.03.2019 20:00:00 7,9 -2,5 13 7 16 9 ENE 0 0,0
21.03.2019 19:00:00 8,1 -2,3 11 6 22 12 ENE 36 -
21.03.2019 18:00:00 9,4 -1,7 13 7 29 16 ENE 60 0,0
21.03.2019 17:00:00 10,4 -2,3 15 8 28 15 NE 60 0,0
21.03.2019 16:00:00 10,6 -1,8 15 8 29 16 NE 60 0,0
21.03.2019 15:00:00 10,6 -0,3 13 7 31 17 NNE 60 0,0
21.03.2019 14:00:00 10,2 0,2 13 7 31 17 NNE 60 0,0
21.03.2019 13:00:00 9,3 -0,6 15 8 34 18 NE 60 -
21.03.2019 12:00:00 8,2 -0,6 15 8 29 16 ENE 60 0,0
21.03.2019 11:00:00 7,3 -1,9 15 8 29 16 ENE 48 0,0
21.03.2019 10:00:00 6,4 -2,2 16 9 39 21 ENE 60 0,0
21.03.2019 09:00:00 4,7 -3,1 26 14 44 24 NE 60 0,0
21.03.2019 08:00:00 3,5 -3,5 29 16 48 26 NE 54 0,0
21.03.2019 07:00:00 2,7 -4,1 29 16 52 28 NE 0 -
21.03.2019 06:00:00 2,9 -4,1 26 14 48 26 NE 0 0,0
21.03.2019 05:00:00 3,2 -3,8 29 16 50 27 NE 0 0,0
21.03.2019 04:00:00 3,6 -3,7 22 12 42 23 NNE 0 0,0
21.03.2019 03:00:00 3,8 -3,7 22 12 46 25 NNE 0 0,0
21.03.2019 02:00:00 4,5 -3,5 24 13 48 26 NE 0 0,0
21.03.2019 01:00:00 4,9 -3,4 28 15 48 26 NE 0 -
21.03.2019 00:00:00 5,4 -2,9 31 17 52 28 NE 0 0,0
20.03.2019 23:00:00 5,5 -2,8 28 15 50 27 NE 0 0,0
20.03.2019 22:00:00 5,8 -3,1 22 12 41 22 NNE 0 0,0
20.03.2019 21:00:00 6,2 -2,9 21 11 37 20 NE 0 0,0
20.03.2019 20:00:00 6,7 -2,7 22 12 37 20 NNE 0 0,0

tt = temperature
td = dewpoint
ff = wind speed
fx = gusts
dd = wind direction
sd = sunshine duration
rr = precipitation

Next stations